Time;durP1;ratioP1;P1;durP2;ratioP2;P2;SDS_P1;SDS_P2;PMS_P1;PMS_P2;Temp;Humidity;BMP_temperature;BMP_pressure;BME280_temperature;BME280_humidity;BME280_pressure;Samples;Min_cycle;Max_cycle;Signal;HPM_P1;HPM_P2
2023/05/25 00:00:32;;;;;;;;;;;9.20;99.90;;;7.91;90.71;101870.88;5038838;28;19917;-73
2023/05/25 00:02:58;;;;;;;;;;;9.20;99.90;;;7.87;91.18;101864.78;5015051;28;20292;-73
2023/05/25 00:05:26;;;;;;;;;;;9.20;99.90;;;7.87;91.35;101864.78;5034492;28;20559;-73
2023/05/25 00:07:53;;;;;;;;;;;9.20;99.90;;;7.86;90.80;101865.69;5042732;28;19920;-73
2023/05/25 00:10:20;;;;;;;;;;;9.20;99.90;;;7.87;90.90;101863.94;5041143;28;19924;-74
2023/05/25 00:12:46;;;;;;;;;;;9.20;99.90;;;7.88;91.33;101865.66;5029584;28;19913;-73
2023/05/25 00:15:11;;;;;;;;;;;9.20;99.90;;;7.88;92.12;101869.13;5034554;28;19995;-74
2023/05/25 00:17:37;;;;;;;;;;;9.20;99.90;;;7.87;92.83;101870.03;5020593;28;19934;-74
2023/05/25 00:20:06;;;;;;;;;;;9.20;99.90;;;7.84;92.71;101864.84;5068768;28;19912;-74
2023/05/25 00:22:35;;;;;;;;;;;9.20;99.90;;;7.81;93.08;101863.13;5023468;28;19921;-73
2023/05/25 00:25:05;;;;;;;;;;;9.10;99.90;;;7.77;93.78;101863.22;5043560;28;20073;-73
2023/05/25 00:27:31;;;;;;;;;;;9.10;99.90;;;7.75;93.98;101855.41;5036422;28;19965;-73
2023/05/25 00:29:57;;;;;;;;;;;9.10;99.90;;;7.75;93.80;101854.50;5070431;28;19997;-74
2023/05/25 00:32:23;;;;;;;;;;;9.10;99.90;;;7.76;93.74;101864.13;5050968;28;19925;-74
2023/05/25 00:34:49;;;;;;;;;;;9.00;99.90;;;7.77;94.46;101858.81;5037784;28;19913;-74
2023/05/25 00:37:15;;;;;;;;;;;9.10;99.90;;;7.81;94.77;101859.66;5037545;28;20011;-73
2023/05/25 00:39:40;;;;;;;;;;;9.10;99.90;;;7.86;94.71;101867.44;5036827;28;20010;-73
2023/05/25 00:42:06;;;;;;;;;;;9.10;99.90;;;7.87;95.03;101861.31;5039153;28;19924;-75
2023/05/25 00:44:32;;;;;;;;;;;9.10;99.90;;;7.88;95.16;101861.25;5042702;28;20015;-74
2023/05/25 00:47:00;;;;;;;;;;;9.20;99.90;;;7.88;95.11;101858.63;5043438;28;19913;-74
2023/05/25 00:49:27;;;;;;;;;;;9.10;99.90;;;7.85;95.08;101855.22;5034896;28;19920;-74
2023/05/25 00:51:53;;;;;;;;;;;9.20;99.90;;;7.85;95.19;101856.09;5020252;28;20366;-73
2023/05/25 00:54:19;;;;;;;;;;;9.10;99.90;;;7.81;94.84;101857.03;5041282;28;19924;-74
2023/05/25 00:57:05;;;;;;;;;;;9.10;99.90;;;7.79;94.62;101850.94;5042023;28;19920;-74
2023/05/25 00:59:45;;;;;;;;;;;9.10;99.90;;;7.78;94.83;101854.47;5036353;28;19921;-73
2023/05/25 01:02:15;;;;;;;;;;;9.10;99.90;;;7.78;95.14;101844.84;5021129;28;19990;-73
2023/05/25 01:04:44;;;;;;;;;;;9.10;99.90;;;7.80;95.46;101853.53;5018192;28;19921;-74
2023/05/25 01:07:11;;;;;;;;;;;9.10;99.90;;;7.81;95.78;101855.25;5051281;28;19916;-73
2023/05/25 01:09:43;;;;;;;;;;;9.10;99.90;;;7.80;95.76;101850.94;5032934;28;20010;-74
2023/05/25 01:12:10;;;;;;;;;;;9.10;99.90;;;7.75;95.83;101857.13;5038043;28;19983;-73
2023/05/25 01:14:38;;;;;;;;;;;9.10;99.90;;;7.70;96.01;101848.47;5035080;28;19912;-73
2023/05/25 01:17:05;;;;;;;;;;;8.90;99.90;;;7.63;95.25;101854.72;5037765;28;20373;-74
2023/05/25 01:19:35;;;;;;;;;;;8.90;99.90;;;7.56;95.02;101851.34;5036051;28;19924;-74
2023/05/25 01:22:18;;;;;;;;;;;8.90;99.90;;;7.49;95.24;101854.94;5012166;28;19955;-73
2023/05/25 01:24:52;;;;;;;;;;;8.80;99.90;;;7.44;94.71;101851.53;5037076;28;19925;-75
2023/05/25 01:27:31;;;;;;;;;;;8.80;99.90;;;7.40;94.65;101856.78;5033735;28;19917;-73
2023/05/25 01:29:58;;;;;;;;;;;8.80;99.90;;;7.40;94.81;101853.31;5065178;28;19960;-74
2023/05/25 01:32:25;;;;;;;;;;;8.70;99.90;;;7.40;94.50;101854.19;5035170;28;20622;-74
2023/05/25 01:34:54;;;;;;;;;;;8.70;99.90;;;7.40;94.57;101858.56;5051708;28;19912;-74
2023/05/25 01:37:23;;;;;;;;;;;8.70;99.90;;;7.40;94.85;101858.56;5037274;28;19930;-73
2023/05/25 01:39:49;;;;;;;;;;;8.70;99.90;;;7.38;95.17;101855.97;5037859;28;20015;-74
2023/05/25 01:42:15;;;;;;;;;;;8.70;99.90;;;7.33;95.75;101855.16;5040269;28;19913;-74
2023/05/25 01:44:41;;;;;;;;;;;8.70;99.90;;;7.28;96.64;101848.25;5037539;28;19916;-73
2023/05/25 01:47:20;;;;;;;;;;;8.60;99.90;;;7.18;96.57;101845.78;5034976;28;19916;-74
2023/05/25 01:50:04;;;;;;;;;;;8.50;99.90;;;7.11;96.57;101840.66;5034626;28;19947;-73
2023/05/25 01:52:35;;;;;;;;;;;8.50;99.90;;;7.10;96.35;101846.78;5032521;28;20004;-74
2023/05/25 01:55:16;;;;;;;;;;;8.40;99.90;;;7.07;96.77;101855.56;5040199;28;19920;-74
2023/05/25 01:57:45;;;;;;;;;;;8.40;99.90;;;7.04;96.82;101860.84;5034465;28;19921;-74
2023/05/25 02:00:14;;;;;;;;;;;8.40;99.90;;;6.96;97.83;101853.09;5036148;28;19921;-74
2023/05/25 02:02:42;;;;;;;;;;;8.40;99.90;;;6.95;98.56;101850.47;5031128;28;19999;-74
2023/05/25 02:05:09;;;;;;;;;;;8.30;99.90;;;6.92;97.99;101845.28;5039518;28;20002;-73
2023/05/25 02:07:35;;;;;;;;;;;8.30;99.90;;;6.91;98.13;101846.16;5063397;28;20401;-74
2023/05/25 02:10:01;;;;;;;;;;;7.00;99.90;;;6.91;97.46;101835.69;5034346;28;19940;-74
2023/05/25 02:12:27;;;;;;;;;;;8.30;99.90;;;6.92;97.61;101845.28;5015941;28;20008;-74
2023/05/25 02:14:53;;;;;;;;;;;8.20;99.90;;;6.92;97.79;101850.53;5031052;28;19913;-73
2023/05/25 02:17:18;;;;;;;;;;;8.30;99.90;;;6.90;97.80;101853.16;5038234;28;20019;-74
2023/05/25 02:19:45;;;;;;;;;;;8.20;99.90;;;6.88;98.34;101843.59;5067743;28;19981;-74
2023/05/25 02:22:11;;;;;;;;;;;8.20;99.90;;;6.84;98.98;101836.66;5032402;28;19920;-74
2023/05/25 02:24:37;;;;;;;;;;;8.20;99.90;;;6.73;99.90;101839.44;5021542;28;19983;-74
2023/05/25 02:27:04;;;;;;;;;;;8.10;99.90;;;6.66;100.00;101837.78;5033425;28;19923;-74
2023/05/25 02:29:30;;;;;;;;;;;8.10;99.90;;;6.65;100.00;101844.78;5037194;28;19920;-74
2023/05/25 02:31:56;;;;;;;;;;;8.00;99.90;;;6.62;100.00;101839.56;5035534;28;19924;-74
2023/05/25 02:34:21;;;;;;;;;;;8.00;99.90;;;6.63;100.00;101845.66;5034028;28;20365;-74
2023/05/25 02:36:47;;;;;;;;;;;8.00;99.90;;;6.62;99.72;101839.56;5014645;28;20483;-74
2023/05/25 02:39:13;;;;;;;;;;;8.00;99.90;;;6.62;99.34;101836.94;5035194;28;20451;-73
2023/05/25 02:41:39;;;;;;;;;;;7.90;99.90;;;6.66;99.77;101835.16;5032802;28;20019;-74
2023/05/25 02:44:05;;;;;;;;;;;8.00;99.90;;;6.70;99.68;101847.34;5018358;28;20396;-74
2023/05/25 02:46:32;;;;;;;;;;;8.00;99.90;;;6.71;100.00;101844.66;5032391;28;19951;-74
2023/05/25 02:48:58;;;;;;;;;;;8.00;99.90;;;6.72;100.00;101837.72;5033540;28;19913;-73
2023/05/25 02:51:25;;;;;;;;;;;8.00;99.90;;;6.70;100.00;101836.88;5038036;28;19927;-74
2023/05/25 02:53:51;;;;;;;;;;;8.00;99.90;;;6.66;100.00;101837.78;5035640;28;19921;-74
2023/05/25 02:56:17;;;;;;;;;;;8.00;99.90;;;6.64;100.00;101831.69;5034677;28;19920;-74
2023/05/25 02:58:43;;;;;;;;;;;8.00;99.90;;;6.64;100.00;101843.03;5013694;28;19920;-74
2023/05/25 03:01:09;;;;;;;;;;;7.90;99.90;;;6.64;100.00;101835.16;5028727;28;20403;-74
2023/05/25 03:03:36;;;;;;;;;;;7.90;99.90;;;6.66;100.00;101840.41;5036166;28;19923;-74
2023/05/25 03:06:03;;;;;;;;;;;8.00;99.90;;;6.70;100.00;101836.88;5033246;28;19923;-74
2023/05/25 03:08:29;;;;;;;;;;;8.00;99.90;;;6.75;100.00;101842.88;5018343;28;19913;-74
2023/05/25 03:10:55;;;;;;;;;;;8.00;99.90;;;6.83;100.00;101840.19;5036660;28;19964;-73
2023/05/25 03:13:21;;;;;;;;;;;8.00;99.90;;;6.84;100.00;101844.53;5033249;28;19924;-74
2023/05/25 03:15:46;;;;;;;;;;;8.10;99.90;;;6.90;100.00;101849.69;5036519;28;19920;-74
2023/05/25 03:18:12;;;;;;;;;;;8.10;99.90;;;6.98;100.00;101860.94;5032849;28;19919;-74
2023/05/25 03:20:38;;;;;;;;;;;8.20;99.90;;;7.05;100.00;101853.84;5049129;28;19920;-74
2023/05/25 03:23:03;;;;;;;;;;;8.20;99.90;;;7.12;100.00;101851.09;5030528;28;20288;-74
2023/05/25 03:25:30;;;;;;;;;;;8.30;99.90;;;7.25;100.00;101858.78;5015038;28;19917;-74
2023/05/25 03:27:56;;;;;;;;;;;8.40;99.90;;;7.35;100.00;101866.50;5017842;28;19927;-74
2023/05/25 03:30:22;;;;;;;;;;;8.40;99.90;;;7.46;100.00;101862.84;5034983;28;20347;-74
2023/05/25 03:32:47;;;;;;;;;;;8.50;99.90;;;7.52;100.00;101870.63;5035232;28;19913;-74
2023/05/25 03:35:13;;;;;;;;;;;8.60;99.90;;;7.57;100.00;101861.78;5028321;28;19920;-74
2023/05/25 03:37:39;;;;;;;;;;;8.70;99.90;;;7.65;100.00;101874.78;5061909;28;19924;-74
2023/05/25 03:40:05;;;;;;;;;;;8.70;99.90;;;7.73;99.69;101866.78;5018099;28;19960;-74
2023/05/25 03:42:31;;;;;;;;;;;8.80;99.90;;;7.81;98.99;101862.28;5037153;28;20351;-74
2023/05/25 03:44:57;;;;;;;;;;;8.90;99.90;;;7.96;97.69;101859.38;5039704;28;19917;-74
2023/05/25 03:47:22;;;;;;;;;;;9.00;99.90;;;8.15;97.81;101870.41;5036885;28;20289;-74
2023/05/25 03:49:48;;;;;;;;;;;9.10;99.90;;;8.55;97.27;101867.06;5036700;28;19912;-74
2023/05/25 03:52:14;;;;;;;;;;;9.50;99.90;;;9.65;95.97;101878.66;5036656;28;19917;-74
2023/05/25 03:54:39;;;;;;;;;;;10.50;99.90;;;10.87;93.96;101887.69;5038549;28;20436;-75
2023/05/25 03:57:05;;;;;;;;;;;11.60;99.90;;;12.17;90.18;101899.44;5035544;28;19912;-74
2023/05/25 03:59:31;;;;;;;;;;;12.70;99.90;;;13.18;84.46;101893.09;5035511;28;19912;-74
2023/05/25 04:01:56;;;;;;;;;;;13.60;99.90;;;14.14;78.87;101903.31;5039880;28;19920;-74
2023/05/25 04:04:22;;;;;;;;;;;14.50;99.90;;;15.06;73.94;101909.84;5041893;28;19925;-74
2023/05/25 04:06:48;;;;;;;;;;;15.30;99.90;;;15.98;69.91;101913.41;5039769;28;19948;-75
2023/05/25 04:09:14;;;;;;;;;;;16.10;99.90;;;16.84;66.94;101926.69;5052923;28;19939;-75
2023/05/25 04:11:40;;;;;;;;;;;16.90;99.90;;;17.65;63.95;101920.47;5037883;28;20567;-74
2023/05/25 04:14:06;;;;;;;;;;;17.60;99.90;;;17.55;63.16;101920.09;5038320;28;19913;-74
2023/05/25 04:16:31;;;;;;;;;;;17.60;99.90;;;18.45;61.41;101930.81;5038189;28;19921;-75
2023/05/25 04:18:57;;;;;;;;;;;18.30;99.90;;;19.48;59.29;101944.84;5038157;28;19916;-75
2023/05/25 04:21:23;;;;;;;;;;;19.00;99.90;;;20.02;57.58;101942.22;5034689;28;19916;-74
2023/05/25 04:23:48;;;;;;;;;;;19.60;99.90;;;20.82;56.18;101957.28;5033965;28;19979;-75
2023/05/25 04:26:15;;;;;;;;;;;20.20;99.90;;;20.60;56.22;101960.63;5037720;28;20363;-75
2023/05/25 04:28:41;;;;;;;;;;;20.20;99.90;;;21.18;55.03;101977.91;5038339;28;19925;-75
2023/05/25 04:31:08;;;;;;;;;;;20.60;99.90;;;20.06;56.10;101954.44;5035061;28;19917;-74
2023/05/25 04:33:37;;;;;;;;;;;20.20;99.90;;;19.22;56.86;101946.53;5033392;28;19913;-74
2023/05/25 04:36:07;;;;;;;;;;;19.70;99.90;;;18.75;58.79;101942.38;5065223;28;20563;-75
2023/05/25 04:38:34;;;;;;;;;;;19.20;99.90;;;17.94;59.63;101932.09;5038748;28;19923;-75
2023/05/25 04:41:01;;;;;;;;;;;18.60;99.90;;;17.27;61.54;101929.66;5063222;28;20289;-74
2023/05/25 04:43:28;;;;;;;;;;;18.10;99.90;;;16.58;62.94;101925.38;5036766;28;19949;-75
2023/05/25 04:45:58;;;;;;;;;;;17.50;99.90;;;18.40;61.97;101950.69;5016405;28;20058;-75
2023/05/25 04:48:27;;;;;;;;;;;17.80;99.90;;;20.64;58.18;101981.69;5033129;28;19967;-74
2023/05/25 04:50:54;;;;;;;;;;;18.80;99.90;;;22.57;54.16;101991.81;5040831;28;19924;-75
2023/05/25 04:53:23;;;;;;;;;;;20.10;99.90;;;24.03;51.10;102004.31;5035788;28;19921;-76
2023/05/25 04:55:50;;;;;;;;;;;21.50;99.90;;;22.14;52.39;101974.47;5017301;28;20373;-75
2023/05/25 04:58:16;;;;;;;;;;;21.60;99.90;;;20.82;54.95;101962.63;5036849;28;19944;-75
2023/05/25 05:00:41;;;;;;;;;;;21.10;99.90;;;19.71;56.70;101947.88;5033571;28;19931;-75
2023/05/25 05:03:07;;;;;;;;;;;20.50;99.90;;;18.72;58.49;101942.53;5050396;28;20330;-75
2023/05/25 05:05:35;;;;;;;;;;;19.70;99.90;;;17.82;61.13;101933.69;5035750;28;19928;-75
2023/05/25 05:08:02;;;;;;;;;;;19.00;99.90;;;17.16;63.07;101937.38;5034921;28;20593;-76
2023/05/25 05:10:28;;;;;;;;;;;18.40;99.90;;;16.70;65.31;101943.34;5020296;28;20748;-75
2023/05/25 05:12:54;;;;;;;;;;;17.90;99.90;;;16.45;66.79;101946.44;5035207;28;19912;-75
2023/05/25 05:15:20;;;;;;;;;;;17.50;99.90;;;16.29;67.28;101946.38;5040549;28;19912;-75
2023/05/25 05:17:46;;;;;;;;;;;17.20;99.90;;;16.15;68.18;101939.09;5066081;28;20321;-75
2023/05/25 05:20:12;;;;;;;;;;;17.00;99.90;;;15.86;70.04;101945.03;5034035;28;20447;-75
2023/05/25 05:22:38;;;;;;;;;;;16.80;99.90;;;15.75;70.93;101942.91;5016155;28;19999;-75
2023/05/25 05:25:04;;;;;;;;;;;16.60;99.90;;;15.68;72.04;101944.97;5036617;28;19912;-75
2023/05/25 05:27:29;;;;;;;;;;;16.50;99.90;;;15.79;72.33;101958.59;5019636;28;20380;-74
2023/05/25 05:29:55;;;;;;;;;;;16.50;99.90;;;15.68;72.94;101950.28;5036987;28;19961;-75
2023/05/25 05:32:21;;;;;;;;;;;16.50;99.90;;;15.67;73.13;101953.00;5033135;28;19923;-75
2023/05/25 05:34:47;;;;;;;;;;;16.40;99.90;;;15.55;73.75;101957.06;5031246;28;19927;-75
2023/05/25 05:37:12;;;;;;;;;;;16.30;99.90;;;15.51;74.54;101972.31;5019644;28;19912;-75
2023/05/25 05:39:38;;;;;;;;;;;16.30;99.90;;;15.48;75.78;101974.25;5033570;28;19949;-76
2023/05/25 05:42:04;;;;;;;;;;;16.20;99.90;;;15.48;75.68;101976.91;5019099;28;19913;-75
2023/05/25 05:44:30;;;;;;;;;;;16.20;99.90;;;15.39;76.72;101970.22;5033596;28;19919;-75
2023/05/25 05:46:59;;;;;;;;;;;16.20;99.90;;;15.30;77.18;101971.53;5015284;28;19920;-75
2023/05/25 05:49:28;;;;;;;;;;;16.20;99.90;;;15.38;77.66;101974.69;5020201;28;19970;-75
2023/05/25 05:51:54;;;;;;;;;;;16.20;99.90;;;15.51;77.19;101980.28;5036997;28;19956;-75
2023/05/25 05:54:19;;;;;;;;;;;16.20;99.90;;;15.77;76.64;101971.09;5035755;28;19913;-74
2023/05/25 05:56:45;;;;;;;;;;;16.20;99.90;;;15.93;75.94;101980.97;5015281;28;19924;-75
2023/05/25 05:59:11;;;;;;;;;;;16.40;99.90;;;16.96;74.75;101989.88;5035452;28;19913;-75
2023/05/25 06:01:37;;;;;;;;;;;16.70;99.90;;;17.82;72.23;101990.50;5041699;28;19920;-75
2023/05/25 06:04:14;;;;;;;;;;;17.20;99.90;;;19.05;67.37;101991.19;5041476;28;19924;-75
2023/05/25 06:06:41;;;;;;;;;;;19.60;99.90;;;18.25;67.08;101981.81;5023775;28;20361;-74
2023/05/25 06:09:06;;;;;;;;;;;18.60;99.90;;;17.67;67.81;101985.13;5041244;28;20367;-75
2023/05/25 06:11:35;;;;;;;;;;;18.50;99.90;;;17.35;69.14;101979.81;5027958;28;19960;-75
2023/05/25 06:14:01;;;;;;;;;;;18.20;99.90;;;16.95;70.36;101987.28;5058950;28;19920;-75
2023/05/25 06:16:26;;;;;;;;;;;17.90;99.90;;;16.68;71.53;101984.28;5041568;28;19921;-75
2023/05/25 06:18:52;;;;;;;;;;;17.70;99.90;;;16.42;72.42;101988.28;5039529;28;19920;-75
2023/05/25 06:21:18;;;;;;;;;;;17.40;99.90;;;16.24;73.33;101984.75;5027488;28;20519;-75
2023/05/25 06:23:43;;;;;;;;;;;17.30;99.90;;;15.99;73.87;101991.28;5029230;28;19916;-74
2023/05/25 06:26:09;;;;;;;;;;;17.10;99.90;;;15.96;74.78;101986.09;5029473;28;19920;-74
2023/05/25 06:28:35;;;;;;;;;;;17.00;99.90;;;15.93;75.29;101991.59;5024816;28;19967;-75
2023/05/25 06:31:01;;;;;;;;;;;16.90;99.90;;;16.03;75.45;101992.84;5032205;28;20416;-74
2023/05/25 06:33:26;;;;;;;;;;;16.90;99.90;;;15.88;74.92;101986.50;5039411;28;19927;-74
2023/05/25 06:35:55;;;;;;;;;;;16.80;99.90;;;15.90;75.42;101989.09;5041910;28;19920;-74
2023/05/25 06:38:21;;;;;;;;;;;16.80;99.90;;;15.84;75.50;101986.72;5031508;28;19960;-75
2023/05/25 06:40:47;;;;;;;;;;;16.70;99.90;;;15.77;74.38;101995.00;5053807;28;19917;-75
2023/05/25 06:43:13;;;;;;;;;;;16.70;99.90;;;15.84;74.07;101986.72;5041958;28;19919;-75
2023/05/25 06:45:39;;;;;;;;;;;16.70;99.90;;;16.07;74.12;102004.16;5029029;28;19916;-75
2023/05/25 06:48:04;;;;;;;;;;;16.80;99.90;;;16.14;73.37;102001.16;5040917;28;20293;-75
2023/05/25 06:50:30;;;;;;;;;;;16.80;99.90;;;16.15;73.54;102010.81;5050648;28;19920;-75
2023/05/25 06:52:56;;;;;;;;;;;16.90;99.90;;;16.25;73.65;101991.78;5042760;28;19921;-75
2023/05/25 06:55:21;;;;;;;;;;;17.00;99.90;;;16.40;72.83;101996.31;5025963;28;19927;-75
2023/05/25 06:57:47;;;;;;;;;;;17.10;99.90;;;16.67;72.16;102001.16;5040456;28;19921;-75
2023/05/25 07:00:13;;;;;;;;;;;17.20;99.90;;;17.02;70.90;102005.50;5028384;28;20782;-74
2023/05/25 07:02:39;;;;;;;;;;;17.40;99.90;;;17.14;69.35;102003.13;5041018;28;20015;-75
2023/05/25 07:05:05;;;;;;;;;;;17.60;99.90;;;17.49;69.47;102006.50;5043321;28;19913;-75
2023/05/25 07:07:31;;;;;;;;;;;17.90;99.90;;;17.73;68.51;102009.63;5029425;28;22371;-75
2023/05/25 07:09:57;;;;;;;;;;;18.50;99.90;;;18.74;66.13;102016.19;5040255;28;20032;-75
2023/05/25 07:12:23;;;;;;;;;;;18.50;99.90;;;19.30;64.76;102023.50;5043192;28;19928;-75
2023/05/25 07:14:48;;;;;;;;;;;19.10;99.90;;;20.97;62.93;102039.22;5035413;28;19920;-74
2023/05/25 07:17:14;;;;;;;;;;;20.00;99.90;;;21.05;59.37;102033.31;5033753;28;19917;-75
2023/05/25 07:19:42;;;;;;;;;;;20.80;99.90;;;20.74;58.55;102035.47;5047839;28;20383;-75
2023/05/25 07:22:11;;;;;;;;;;;21.00;99.90;;;20.75;59.88;102037.16;5029970;28;19932;-75
2023/05/25 07:24:37;;;;;;;;;;;21.10;99.90;;;20.27;60.01;102021.63;5016345;28;20455;-75
2023/05/25 07:27:03;;;;;;;;;;;20.90;99.90;;;19.95;61.02;102014.91;5029777;28;20042;-75
2023/05/25 07:29:29;;;;;;;;;;;20.70;99.90;;;19.81;61.32;102021.16;5043479;28;20543;-74
2023/05/25 07:31:54;;;;;;;;;;;20.50;99.90;;;19.61;62.53;102015.25;5040827;28;19924;-74
2023/05/25 07:34:20;;;;;;;;;;;20.30;99.90;;;20.03;62.40;102018.78;5059144;28;20270;-75
2023/05/25 07:36:46;;;;;;;;;;;20.40;99.90;;;20.65;61.09;102028.06;5036400;28;19916;-75
2023/05/25 07:39:12;;;;;;;;;;;20.60;99.90;;;21.40;59.42;102043.34;5042078;28;20031;-74
2023/05/25 07:41:38;;;;;;;;;;;21.20;99.90;;;22.46;55.15;102051.66;5044314;28;19923;-75
2023/05/25 07:44:04;;;;;;;;;;;21.80;99.90;;;22.99;54.02;102062.78;5042955;28;20296;-75
2023/05/25 07:46:30;;;;;;;;;;;22.50;99.90;;;23.55;54.01;102078.09;5043785;28;19987;-75
2023/05/25 07:48:57;;;;;;;;;;;23.00;99.90;;;23.33;51.47;102076.28;5031705;28;19927;-75
2023/05/25 07:51:25;;;;;;;;;;;23.40;99.90;;;23.29;52.08;102069.44;5042825;28;19974;-75
2023/05/25 07:53:52;;;;;;;;;;;23.50;99.90;;;24.01;52.56;102078.91;5045170;28;20358;-75
2023/05/25 07:56:18;;;;;;;;;;;23.80;99.90;;;24.85;50.77;102093.38;5043072;28;19920;-75
2023/05/25 07:58:45;;;;;;;;;;;24.40;99.90;;;23.81;49.75;102085.94;5043681;28;19920;-74
2023/05/25 08:01:10;;;;;;;;;;;24.40;98.00;;;23.40;51.74;102084.72;5029287;28;19928;-75
2023/05/25 08:03:36;;;;;;;;;;;24.00;99.30;;;23.51;51.77;102084.72;5044850;28;19966;-75
2023/05/25 08:06:02;;;;;;;;;;;23.80;99.90;;;24.62;50.01;102107.94;5043881;28;19917;-75
2023/05/25 08:08:27;;;;;;;;;;;24.20;99.50;;;25.06;49.13;102114.09;5044113;28;19913;-74
2023/05/25 08:10:53;;;;;;;;;;;24.60;98.70;;;25.82;48.36;102117.28;5027674;28;19927;-75
2023/05/25 08:13:19;;;;;;;;;;;25.20;98.70;;;25.10;47.96;102108.28;5026955;28;19936;-75
2023/05/25 08:15:45;;;;;;;;;;;25.30;97.20;;;25.00;47.99;102117.31;5032989;28;20263;-74
2023/05/25 08:18:10;;;;;;;;;;;25.30;96.70;;;24.32;49.61;102102.31;5030289;28;20628;-74
2023/05/25 08:20:36;;;;;;;;;;;25.00;97.20;;;23.87;50.03;102101.56;5031110;28;19913;-75
2023/05/25 08:23:03;;;;;;;;;;;24.60;97.40;;;22.34;51.46;102079.47;5018690;28;19991;-75
2023/05/25 08:25:29;;;;;;;;;;;23.80;97.00;;;22.80;52.22;102094.75;5042450;28;19928;-75
2023/05/25 08:27:55;;;;;;;;;;;23.40;98.70;;;23.08;51.32;102102.38;5045249;28;19917;-75
2023/05/25 08:30:20;;;;;;;;;;;23.30;98.80;;;23.07;51.23;102097.16;5030220;28;19943;-75
2023/05/25 08:32:46;;;;;;;;;;;23.30;98.40;;;23.26;52.87;102101.91;5043833;28;19928;-75
2023/05/25 08:35:12;;;;;;;;;;;23.40;99.70;;;23.06;51.86;102090.06;5044488;28;19973;-74
2023/05/25 08:37:39;;;;;;;;;;;23.50;98.90;;;23.46;52.47;102097.69;5044655;28;19913;-75
2023/05/25 08:40:06;;;;;;;;;;;23.70;99.70;;;23.70;51.68;102105.59;5048961;28;19923;-75
2023/05/25 08:42:32;;;;;;;;;;;23.90;99.20;;;23.91;51.80;102106.59;5030067;28;19964;-75
2023/05/25 08:44:58;;;;;;;;;;;24.20;99.40;;;23.74;51.55;102104.38;5026859;28;19921;-75
2023/05/25 08:47:28;;;;;;;;;;;24.30;98.90;;;24.02;51.39;102121.84;5041533;28;20257;-75
2023/05/25 08:49:54;;;;;;;;;;;24.40;98.80;;;23.77;51.77;102112.22;5025178;28;19916;-74
2023/05/25 08:52:23;;;;;;;;;;;24.40;98.70;;;23.74;50.10;102120.50;5042109;28;19917;-75
2023/05/25 08:54:52;;;;;;;;;;;24.30;97.10;;;23.54;50.24;102112.22;5039087;28;19928;-75
2023/05/25 08:57:58;;;;;;;;;;;24.20;97.50;;;23.49;51.10;102114.38;5026392;28;19943;-75
2023/05/25 09:00:30;;;;;;;;;;;24.20;98.10;;;23.41;51.04;102108.78;4987142;28;20652;-75
2023/05/25 09:03:06;;;;;;;;;;;24.10;97.90;;;23.20;50.90;102116.72;5025502;28;20385;-75
2023/05/25 09:05:35;;;;;;;;;;;24.00;97.50;;;23.22;51.45;102111.19;5032363;28;19950;-74
2023/05/25 09:08:07;;;;;;;;;;;23.90;98.20;;;22.92;51.82;102112.59;5044245;28;19925;-74
2023/05/25 09:10:37;;;;;;;;;;;23.80;98.20;;;23.04;52.78;102114.34;5042645;28;20035;-75
2023/05/25 09:13:03;;;;;;;;;;;23.70;99.00;;;22.83;52.13;102116.84;5056483;28;19932;-75
2023/05/25 09:15:31;;;;;;;;;;;23.60;98.20;;;22.71;52.46;102118.63;5028992;28;20373;-76
2023/05/25 09:17:56;;;;;;;;;;;23.50;98.50;;;22.53;52.28;102112.84;5032545;28;20051;-75
2023/05/25 09:20:23;;;;;;;;;;;23.50;97.90;;;22.21;52.57;102112.53;5016546;28;19913;-74
2023/05/25 09:22:51;;;;;;;;;;;23.20;97.90;;;22.37;53.45;102117.63;5037880;28;19946;-75
2023/05/25 09:25:19;;;;;;;;;;;23.20;98.90;;;22.69;53.28;102107.16;5067409;28;19929;-76
2023/05/25 09:27:45;;;;;;;;;;;23.30;99.40;;;22.46;52.45;102114.28;5017259;28;19917;-77
2023/05/25 09:30:12;;;;;;;;;;;23.30;98.40;;;22.04;52.73;102111.09;5015683;28;19940;-76
2023/05/25 09:32:41;;;;;;;;;;;23.00;98.00;;;21.99;53.14;102109.72;5036370;28;19921;-77
2023/05/25 09:35:13;;;;;;;;;;;23.00;98.30;;;22.22;54.67;102108.00;5019908;28;19920;-76
2023/05/25 09:37:40;;;;;;;;;;;22.90;97.90;;;21.98;53.26;102113.34;5046562;28;19999;-76
2023/05/25 09:40:10;;;;;;;;;;;22.90;98.60;;;21.79;53.35;102112.03;5034543;28;20017;-76
2023/05/25 09:42:37;;;;;;;;;;;22.70;98.50;;;21.35;53.26;102104.44;5031342;28;19979;-77
2023/05/25 09:45:06;;;;;;;;;;;22.50;98.30;;;21.71;55.20;102115.25;5035805;28;20342;-75
2023/05/25 09:47:35;;;;;;;;;;;22.50;99.90;;;21.78;53.24;102114.81;5024497;28;19931;-77
2023/05/25 09:50:06;;;;;;;;;;;22.50;98.60;;;22.04;52.70;102119.13;5020860;28;20676;-76
2023/05/25 09:52:32;;;;;;;;;;;22.60;98.20;;;22.53;52.86;102131.63;5025280;28;19923;-77
2023/05/25 09:54:58;;;;;;;;;;;22.80;99.50;;;23.10;52.83;102130.00;5020503;28;19916;-76
2023/05/25 09:57:26;;;;;;;;;;;23.20;99.70;;;23.62;51.41;102134.94;5035348;28;19924;-77
2023/05/25 09:59:55;;;;;;;;;;;23.60;99.10;;;23.91;50.80;102141.56;5040790;28;19912;-77
2023/05/25 10:02:25;;;;;;;;;;;24.00;98.80;;;23.09;49.84;102135.50;5026657;28;19928;-77
2023/05/25 10:04:51;;;;;;;;;;;23.90;96.60;;;22.41;51.00;102124.47;5020709;28;19935;-78
2023/05/25 10:07:17;;;;;;;;;;;23.10;96.80;;;21.66;52.51;102125.47;5033815;28;19974;-77
2023/05/25 10:09:52;;;;;;;;;;;23.00;97.30;;;21.08;54.14;102130.38;5015489;28;19928;-78
2023/05/25 10:12:19;;;;;;;;;;;22.60;98.10;;;20.55;55.43;102107.22;5016086;28;19924;-78
2023/05/25 10:14:49;;;;;;;;;;;21.70;98.50;;;20.00;55.64;102104.53;5024438;28;19913;-78
2023/05/25 10:17:19;;;;;;;;;;;21.60;99.00;;;19.80;56.72;102103.13;5012009;28;19931;-78
2023/05/25 10:20:04;;;;;;;;;;;21.20;99.70;;;20.14;57.83;102111.66;5019914;28;19920;-76
2023/05/25 10:22:35;;;;;;;;;;;21.10;99.90;;;20.01;55.09;102106.25;5038409;28;19980;-77
2023/05/25 10:25:12;;;;;;;;;;;20.90;98.70;;;19.86;55.30;102108.09;5040049;28;19998;-77
2023/05/25 10:27:45;;;;;;;;;;;21.00;99.90;;;20.39;56.50;102121.63;5028648;28;19927;-78
2023/05/25 10:30:16;;;;;;;;;;;21.10;99.90;;;20.83;54.92;102125.81;5004249;28;19949;-77
2023/05/25 10:32:48;;;;;;;;;;;21.30;99.90;;;21.19;54.50;102126.09;5008502;28;20007;-78
2023/05/25 10:35:14;;;;;;;;;;;21.70;99.90;;;21.34;54.24;102138.41;5024764;28;19940;-78
2023/05/25 10:37:44;;;;;;;;;;;21.90;99.50;;;21.21;53.72;102138.41;5042871;28;19944;-77
2023/05/25 10:40:16;;;;;;;;;;;21.90;99.20;;;20.84;53.76;102129.34;5012313;28;19966;-77
2023/05/25 10:42:44;;;;;;;;;;;21.90;98.60;;;20.72;55.20;102133.72;4998204;28;19933;-79
2023/05/25 10:45:10;;;;;;;;;;;21.60;99.90;;;20.95;55.71;102139.34;5007333;28;19921;-78
2023/05/25 10:47:45;;;;;;;;;;;21.60;98.80;;;20.87;54.07;102137.19;5051313;23;19927;-76
2023/05/25 10:50:36;;;;;;;;;;;21.60;99.20;;;20.88;53.31;102138.91;5052823;28;19920;-79
2023/05/25 10:53:12;;;;;;;;;;;21.70;98.30;;;21.05;53.83;102140.44;5040651;28;19935;-78
2023/05/25 10:55:45;;;;;;;;;;;21.80;99.20;;;21.35;53.75;102142.81;5041014;28;19927;-76
2023/05/25 10:58:14;;;;;;;;;;;22.00;97.90;;;21.34;52.94;102143.78;5077543;28;19978;-79
2023/05/25 11:00:41;;;;;;;;;;;22.10;98.50;;;21.58;52.83;102148.41;5064133;28;20026;-78
2023/05/25 11:03:10;;;;;;;;;;;22.10;98.50;;;21.38;53.24;102142.59;5044670;28;21233;-78
2023/05/25 11:05:37;;;;;;;;;;;22.20;98.70;;;20.97;51.48;102132.94;5058285;28;19948;-78
2023/05/25 11:08:16;;;;;;;;;;;21.80;96.60;;;20.68;52.27;102132.22;5062068;28;19912;-77
2023/05/25 11:10:47;;;;;;;;;;;21.80;97.30;;;20.56;52.30;102130.31;5050821;28;19995;-78
2023/05/25 11:13:36;;;;;;;;;;;21.70;97.30;;;20.80;52.60;102130.53;5070725;28;19916;-79
2023/05/25 11:16:23;;;;;;;;;;;21.60;98.00;;;20.88;52.37;102128.19;5059219;28;20168;-77